createdAt,value
2019-03-25T00:02:34.099Z,18.90
2019-03-25T00:05:36.395Z,18.80
2019-03-25T00:08:38.708Z,18.80
2019-03-25T00:11:42.136Z,18.80
2019-03-25T00:14:44.406Z,18.80
2019-03-25T00:17:46.778Z,18.70
2019-03-25T00:20:49.155Z,18.70
2019-03-25T00:23:51.465Z,18.70
2019-03-25T00:26:53.733Z,18.70
2019-03-25T00:29:56.024Z,18.60
2019-03-25T00:32:58.405Z,18.60
2019-03-25T00:36:00.751Z,18.60
2019-03-25T00:39:03.236Z,18.60
2019-03-25T00:42:06.844Z,18.50
2019-03-25T00:45:09.272Z,18.50
2019-03-25T00:48:11.653Z,18.40
2019-03-25T00:51:13.999Z,18.40
2019-03-25T00:54:16.409Z,18.40
2019-03-25T00:57:19.009Z,18.40
2019-03-25T01:00:21.436Z,18.30
2019-03-25T01:03:23.731Z,18.30
2019-03-25T01:06:26.135Z,18.30
2019-03-25T01:09:28.564Z,18.20
2019-03-25T01:12:30.868Z,18.20
2019-03-25T01:15:33.241Z,18.20
2019-03-25T01:18:36.577Z,18.20
2019-03-25T01:21:38.918Z,18.10
2019-03-25T01:24:41.219Z,18.10
2019-03-25T01:27:45.002Z,18.10
2019-03-25T01:30:47.262Z,18.10
2019-03-25T01:33:49.505Z,18.10
2019-03-25T01:36:51.753Z,18.00
2019-03-25T01:39:54.072Z,17.90
2019-03-25T01:42:56.489Z,17.90
2019-03-25T01:45:58.772Z,17.90
2019-03-25T01:49:01.086Z,17.90
2019-03-25T01:52:03.361Z,17.80
2019-03-25T01:55:13.450Z,17.80
2019-03-25T01:58:09.888Z,17.80
2019-03-25T02:01:12.169Z,17.80
2019-03-25T02:04:16.439Z,17.80
2019-03-25T02:07:18.425Z,17.70
2019-03-25T02:10:20.886Z,17.70
2019-03-25T02:13:23.189Z,17.60
2019-03-25T02:16:25.524Z,17.60
2019-03-25T02:19:27.792Z,17.60
2019-03-25T02:22:30.195Z,17.60
2019-03-25T02:25:32.431Z,17.60
2019-03-25T02:28:34.780Z,17.50
2019-03-25T02:31:37.038Z,17.50
2019-03-25T02:34:39.295Z,17.50
2019-03-25T02:37:41.596Z,17.40
2019-03-25T02:40:43.880Z,17.40
2019-03-25T02:43:46.139Z,17.40
2019-03-25T02:46:48.413Z,17.40
2019-03-25T02:49:50.689Z,17.30
2019-03-25T02:52:52.949Z,17.30
2019-03-25T02:55:55.204Z,17.20
2019-03-25T02:58:57.492Z,17.20
2019-03-25T03:01:59.817Z,17.20
2019-03-25T03:05:02.101Z,17.20
2019-03-25T03:08:05.687Z,17.10
2019-03-25T03:11:08.046Z,17.10
2019-03-25T03:14:10.400Z,17.10
2019-03-25T03:17:12.737Z,17.10
2019-03-25T03:20:15.032Z,17.00
2019-03-25T03:23:17.329Z,17.00
2019-03-25T03:26:19.602Z,17.00
2019-03-25T03:29:21.867Z,16.90
2019-03-25T03:32:24.339Z,16.90
2019-03-25T03:35:26.607Z,16.90
2019-03-25T03:38:28.938Z,16.80
2019-03-25T03:41:31.269Z,16.80
2019-03-25T03:44:33.526Z,16.80
2019-03-25T03:47:35.784Z,16.70
2019-03-25T03:50:38.077Z,16.70
2019-03-25T03:53:40.403Z,16.70
2019-03-25T03:56:43.065Z,16.60
2019-03-25T03:59:45.584Z,16.60
2019-03-25T04:02:47.898Z,16.60
2019-03-25T04:05:50.186Z,16.50
2019-03-25T04:08:52.518Z,16.50
2019-03-25T04:11:54.763Z,16.50
2019-03-25T04:14:57.041Z,16.40
2019-03-25T04:17:59.943Z,16.40
2019-03-25T04:21:02.231Z,16.30
2019-03-25T04:24:04.511Z,16.30
2019-03-25T04:27:06.776Z,16.30
2019-03-25T04:30:09.821Z,16.20
2019-03-25T04:33:12.131Z,16.20
2019-03-25T04:36:14.418Z,16.10
2019-03-25T04:39:16.677Z,16.10
2019-03-25T04:42:18.963Z,16.00
2019-03-25T04:45:21.239Z,16.00
2019-03-25T04:48:23.508Z,15.90
2019-03-25T04:51:25.815Z,15.90
2019-03-25T04:54:28.115Z,15.90
2019-03-25T04:57:30.436Z,15.80
2019-03-25T05:00:37.949Z,15.80
2019-03-25T05:03:40.177Z,15.70
2019-03-25T05:06:42.460Z,15.70
2019-03-25T05:09:44.737Z,15.70
2019-03-25T05:12:46.988Z,15.60
2019-03-25T05:15:49.295Z,15.60
2019-03-25T05:18:51.613Z,15.50
2019-03-25T05:21:53.887Z,15.50
2019-03-25T05:24:56.153Z,15.40
2019-03-25T05:27:59.173Z,15.40
2019-03-25T05:31:01.467Z,15.40
2019-03-25T05:34:03.726Z,15.30
2019-03-25T05:37:06.063Z,15.30
2019-03-25T05:40:08.418Z,15.30
2019-03-25T05:43:10.737Z,15.30
2019-03-25T05:46:13.012Z,15.20
2019-03-25T05:49:17.592Z,15.20
2019-03-25T05:52:19.891Z,15.20
2019-03-25T05:55:22.198Z,15.20
2019-03-25T05:58:24.477Z,15.20
2019-03-25T06:01:27.037Z,15.10
2019-03-25T06:04:29.305Z,15.10
2019-03-25T06:07:31.608Z,15.10
2019-03-25T06:10:33.927Z,15.10
2019-03-25T06:13:36.187Z,15.10
2019-03-25T06:16:38.430Z,15.00
2019-03-25T06:19:40.744Z,15.00
2019-03-25T06:22:43.002Z,15.00
2019-03-25T06:25:45.259Z,15.00
2019-03-25T06:28:47.515Z,15.00
2019-03-25T06:31:49.772Z,14.90
2019-03-25T06:34:52.055Z,14.90
2019-03-25T06:37:54.307Z,14.90
2019-03-25T06:40:56.570Z,14.90
2019-03-25T06:43:58.840Z,14.90
2019-03-25T06:47:01.145Z,14.90
2019-03-25T06:50:03.409Z,14.90
2019-03-25T06:53:05.730Z,14.90
2019-03-25T06:56:08.014Z,14.90
2019-03-25T06:59:10.327Z,15.00
2019-03-25T07:02:12.714Z,15.00
2019-03-25T07:05:15.065Z,15.00
2019-03-25T07:08:17.322Z,15.10
2019-03-25T07:11:19.715Z,15.10
2019-03-25T07:14:22.192Z,15.10
2019-03-25T07:17:24.451Z,15.10
2019-03-25T07:20:26.755Z,15.20
2019-03-25T07:23:29.006Z,15.20
2019-03-25T07:26:31.252Z,15.30
2019-03-25T07:29:33.516Z,15.30
2019-03-25T07:32:35.842Z,15.30
2019-03-25T07:35:38.119Z,15.40
2019-03-25T07:38:40.349Z,15.40
2019-03-25T07:41:42.621Z,15.40
2019-03-25T07:44:48.121Z,15.40
2019-03-25T07:47:50.390Z,15.40
2019-03-25T07:50:52.754Z,15.40
2019-03-25T07:53:55.024Z,15.50
2019-03-25T07:56:57.349Z,15.60
2019-03-25T07:59:59.643Z,15.60
2019-03-25T08:03:01.972Z,15.70
2019-03-25T08:06:04.288Z,15.70
2019-03-25T08:09:09.468Z,15.90
2019-03-25T08:12:11.752Z,16.10
2019-03-25T08:15:14.022Z,16.10
2019-03-25T08:18:16.301Z,16.20
2019-03-25T08:21:18.957Z,16.30
2019-03-25T08:24:21.214Z,16.40
2019-03-25T08:27:23.516Z,16.50
2019-03-25T08:30:25.785Z,16.50
2019-03-25T08:33:28.069Z,16.50
2019-03-25T08:36:30.340Z,16.50
2019-03-25T08:39:32.613Z,16.50
2019-03-25T08:42:34.903Z,16.50
2019-03-25T08:45:37.182Z,16.50
2019-03-25T08:48:39.465Z,16.40
2019-03-25T08:51:41.812Z,16.40
2019-03-25T08:54:44.055Z,16.40
2019-03-25T08:57:46.352Z,16.40
2019-03-25T09:00:48.641Z,16.50
2019-03-25T09:03:50.994Z,16.50
2019-03-25T09:06:53.267Z,16.40
2019-03-25T09:09:55.526Z,16.50
2019-03-25T09:12:57.825Z,16.50
2019-03-25T09:16:00.071Z,16.50
2019-03-25T09:19:02.337Z,16.50
2019-03-25T09:22:04.682Z,16.60
2019-03-25T09:25:07.567Z,16.70
2019-03-25T09:28:09.861Z,16.70
2019-03-25T09:31:17.297Z,16.80
2019-03-25T09:34:24.705Z,16.90
2019-03-25T09:37:25.502Z,17.00
2019-03-25T09:40:27.755Z,17.10
2019-03-25T09:43:30.030Z,17.30
2019-03-25T09:46:32.357Z,17.40
2019-03-25T09:49:34.767Z,17.50
2019-03-25T09:52:38.751Z,17.70
2019-03-25T09:55:44.121Z,17.70
2019-03-25T09:58:56.618Z,17.80
2019-03-25T10:01:58.922Z,17.90
2019-03-25T10:05:01.330Z,18.10
2019-03-25T10:08:03.672Z,18.20
2019-03-25T10:11:06.111Z,18.30
2019-03-25T10:14:08.409Z,18.40
2019-03-25T10:17:13.417Z,18.50
2019-03-25T10:38:25.152Z,18.90
2019-03-25T10:41:27.426Z,19.00
2019-03-25T10:44:29.725Z,19.10
2019-03-25T10:47:32.023Z,19.20
2019-03-25T10:50:34.283Z,19.40
2019-03-25T10:53:36.627Z,19.50
2019-03-25T10:56:41.869Z,19.60
2019-03-25T10:59:42.928Z,19.70
2019-03-25T11:02:45.239Z,19.80
2019-03-25T11:05:47.610Z,19.90
2019-03-25T11:08:51.758Z,20.00
2019-03-25T11:11:54.048Z,20.10
2019-03-25T11:14:56.305Z,20.40
2019-03-25T11:17:58.562Z,20.50
2019-03-25T11:21:00.856Z,20.70
2019-03-25T11:24:03.146Z,20.90
2019-03-25T11:27:05.409Z,21.00
2019-03-25T11:30:09.234Z,21.20
2019-03-25T11:33:11.566Z,21.20
2019-03-25T11:36:13.879Z,21.30
2019-03-25T11:39:16.220Z,21.40
2019-03-25T11:42:18.461Z,21.40
2019-03-25T11:45:20.871Z,21.40
2019-03-25T11:48:23.118Z,21.50
2019-03-25T11:51:25.366Z,21.50
2019-03-25T11:54:27.672Z,21.40
2019-03-25T11:57:29.969Z,21.50
2019-03-25T12:00:32.306Z,21.80
2019-03-25T12:03:34.529Z,22.00
2019-03-25T12:06:36.802Z,22.00
2019-03-25T12:09:39.095Z,22.00
2019-03-25T12:12:41.353Z,21.90
2019-03-25T12:15:43.607Z,21.90
2019-03-25T12:18:46.845Z,21.80
2019-03-25T12:21:49.147Z,21.90
2019-03-25T12:24:51.398Z,22.00
2019-03-25T12:27:53.733Z,22.10
2019-03-25T12:30:56.013Z,22.50
2019-03-25T12:33:58.263Z,22.80
2019-03-25T12:37:00.596Z,22.80
2019-03-25T12:40:02.861Z,22.70
2019-03-25T12:43:05.150Z,22.60
2019-03-25T12:46:07.440Z,22.50
2019-03-25T12:49:09.733Z,22.40
2019-03-25T12:52:12.084Z,22.40
2019-03-25T12:55:14.445Z,22.40
2019-03-25T12:58:16.715Z,22.40
2019-03-25T13:01:19.020Z,22.70
2019-03-25T13:04:21.352Z,22.90
2019-03-25T13:07:23.652Z,23.10
2019-03-25T13:10:25.907Z,23.30
2019-03-25T13:13:29.220Z,23.40
2019-03-25T13:16:31.456Z,23.30
2019-03-25T13:19:33.724Z,23.30
2019-03-25T13:22:36.041Z,23.10
2019-03-25T13:25:44.481Z,23.20
2019-03-25T13:28:46.878Z,23.20
2019-03-25T13:31:49.145Z,23.60
2019-03-25T13:34:51.478Z,23.90
2019-03-25T13:37:53.758Z,24.30
2019-03-25T13:40:56.000Z,24.60
2019-03-25T13:43:58.303Z,25.00
2019-03-25T13:47:00.582Z,25.40
2019-03-25T13:50:02.914Z,25.70
2019-03-25T13:53:05.195Z,25.60
2019-03-25T13:56:07.438Z,25.60
2019-03-25T13:59:09.673Z,26.00
2019-03-25T14:02:11.924Z,26.50
2019-03-25T14:05:14.308Z,26.50
2019-03-25T14:08:16.646Z,26.40
2019-03-25T14:11:20.109Z,26.70
2019-03-25T14:14:22.467Z,27.20
2019-03-25T14:17:24.870Z,27.20
2019-03-25T14:20:27.127Z,27.30
2019-03-25T14:23:29.399Z,27.50
2019-03-25T14:26:31.707Z,27.10
2019-03-25T14:29:33.991Z,26.70
2019-03-25T14:32:36.307Z,26.50
2019-03-25T14:35:38.608Z,26.30
2019-03-25T14:38:40.927Z,26.10
2019-03-25T14:41:43.253Z,26.00
2019-03-25T14:44:45.517Z,25.90
2019-03-25T14:47:47.795Z,25.90
2019-03-25T14:50:50.053Z,25.90
2019-03-25T14:53:53.400Z,26.00
2019-03-25T14:56:55.649Z,26.50
2019-03-25T14:59:57.912Z,27.10
2019-03-25T15:03:00.165Z,27.20
2019-03-25T15:06:02.447Z,27.50
2019-03-25T15:09:07.040Z,27.10
2019-03-25T15:12:09.346Z,26.80
2019-03-25T15:15:12.021Z,26.60
2019-03-25T15:18:16.107Z,26.40
2019-03-25T15:21:18.599Z,26.30
2019-03-25T15:24:20.867Z,26.20
2019-03-25T15:27:25.915Z,26.20
2019-03-25T15:30:35.845Z,26.10
2019-03-25T15:33:32.181Z,26.00
2019-03-25T15:36:34.476Z,25.90
2019-03-25T15:39:46.261Z,25.80
2019-03-25T15:42:43.914Z,25.70
2019-03-25T15:45:46.188Z,25.60
2019-03-25T15:48:48.601Z,25.50
2019-03-25T15:51:50.943Z,25.40
2019-03-25T15:54:53.167Z,25.20
2019-03-25T15:57:55.453Z,25.10
2019-03-25T16:00:57.698Z,25.00
2019-03-25T16:03:59.984Z,24.80
2019-03-25T16:07:06.105Z,24.70
2019-03-25T16:10:09.264Z,24.50
2019-03-25T16:13:11.613Z,24.50
2019-03-25T16:16:13.908Z,24.50
2019-03-25T16:19:16.252Z,24.40
2019-03-25T16:22:18.516Z,24.40
2019-03-25T16:25:29.182Z,24.70
2019-03-25T16:28:31.451Z,25.20
2019-03-25T16:31:35.737Z,27.10
2019-03-25T16:34:37.992Z,26.80
2019-03-25T16:37:40.255Z,25.90
2019-03-25T16:40:42.554Z,25.60
2019-03-25T16:43:44.859Z,25.20
2019-03-25T16:46:47.159Z,25.00
2019-03-25T16:49:49.433Z,24.70
2019-03-25T16:53:01.075Z,24.50
2019-03-25T16:56:03.505Z,24.40
2019-03-25T16:59:05.971Z,24.30
2019-03-25T17:02:08.279Z,24.20
2019-03-25T17:05:10.734Z,24.00
2019-03-25T17:08:13.186Z,23.90
2019-03-25T17:11:15.485Z,23.80
2019-03-25T17:14:17.892Z,23.60
2019-03-25T17:17:20.224Z,23.50
2019-03-25T17:20:22.671Z,23.30
2019-03-25T17:23:25.092Z,23.20
2019-03-25T17:26:27.490Z,22.90
2019-03-25T17:29:29.764Z,22.80
2019-03-25T17:32:32.048Z,22.70
2019-03-25T17:35:34.378Z,22.50
2019-03-25T17:38:36.623Z,22.50
2019-03-25T17:41:38.909Z,22.50
2019-03-25T17:44:41.157Z,22.50
2019-03-25T17:47:43.456Z,22.30
2019-03-25T17:50:45.842Z,22.20
2019-03-25T17:53:48.113Z,22.10
2019-03-25T17:56:50.362Z,22.10
2019-03-25T17:59:52.625Z,22.00
2019-03-25T18:02:54.913Z,21.90
2019-03-25T18:05:57.271Z,21.80
2019-03-25T18:08:59.569Z,21.80
2019-03-25T18:12:01.923Z,21.80
2019-03-25T18:15:06.075Z,21.70
2019-03-25T18:18:08.271Z,21.60
2019-03-25T18:21:10.597Z,21.50
2019-03-25T18:24:12.940Z,21.50
2019-03-25T18:27:16.340Z,21.40
2019-03-25T18:30:23.473Z,21.40
2019-03-25T18:33:25.751Z,21.30
2019-03-25T18:36:28.086Z,21.20
2019-03-25T18:39:30.394Z,21.20
2019-03-25T18:42:32.688Z,21.10
2019-03-25T18:45:34.939Z,21.10
2019-03-25T18:48:37.275Z,21.00
2019-03-25T18:51:39.574Z,21.00
2019-03-25T19:11:30.743Z,20.70
2019-03-25T19:14:25.280Z,20.70
2019-03-25T19:17:27.567Z,20.60
2019-03-25T19:20:30.919Z,20.60
2019-03-25T19:23:33.291Z,20.50
2019-03-25T19:26:35.570Z,20.50
2019-03-25T19:29:37.868Z,20.40
2019-03-25T19:32:40.204Z,20.40
2019-03-25T19:35:42.552Z,20.30
2019-03-25T19:38:44.809Z,20.30
2019-03-25T19:41:47.077Z,20.20
2019-03-25T19:44:49.389Z,20.20
2019-03-25T19:47:51.707Z,20.10
2019-03-25T19:50:53.918Z,20.10
2019-03-25T19:53:56.172Z,20.00
2019-03-25T20:15:18.110Z,19.80
2019-03-25T20:18:20.344Z,19.70
2019-03-25T20:21:22.647Z,19.70
2019-03-25T20:24:24.993Z,19.70
2019-03-25T20:27:27.297Z,19.70
2019-03-25T20:30:29.715Z,19.40
2019-03-25T20:33:32.021Z,19.30
2019-03-25T20:36:34.443Z,19.20
2019-03-25T20:39:36.656Z,19.20
2019-03-25T20:42:39.025Z,19.10
2019-03-25T20:45:41.362Z,19.00
2019-03-25T20:48:43.765Z,18.90
2019-03-25T20:51:46.054Z,18.90
2019-03-25T20:54:48.428Z,18.80
2019-03-25T20:57:50.762Z,18.80
2019-03-25T21:00:57.725Z,18.70
2019-03-25T21:04:00.093Z,18.60
2019-03-25T21:07:02.533Z,18.50
2019-03-25T21:10:07.920Z,18.50
2019-03-25T21:13:10.218Z,18.40
2019-03-25T21:16:12.453Z,18.40
2019-03-25T21:19:14.742Z,18.30
2019-03-25T21:22:17.064Z,18.20
2019-03-25T21:25:19.391Z,18.20
2019-03-25T21:28:21.651Z,18.10
2019-03-25T21:31:24.010Z,18.10
2019-03-25T21:34:26.328Z,18.00
2019-03-25T21:37:28.831Z,17.90
2019-03-25T21:40:31.660Z,17.90
2019-03-25T21:43:33.955Z,17.80
2019-03-25T21:46:36.214Z,17.80
2019-03-25T21:49:38.493Z,17.70
2019-03-25T21:52:40.755Z,17.70
2019-03-25T21:55:43.085Z,17.70
2019-03-25T21:58:45.382Z,17.60
2019-03-25T22:01:48.943Z,17.60
2019-03-25T22:04:51.284Z,17.50
2019-03-25T22:07:53.569Z,17.50
2019-03-25T22:10:55.867Z,17.40
2019-03-25T22:13:58.220Z,17.40
2019-03-25T22:17:00.484Z,17.30
2019-03-25T22:20:02.807Z,17.30
2019-03-25T22:23:05.103Z,17.20
2019-03-25T22:26:07.468Z,17.20
2019-03-25T22:29:09.817Z,17.10
2019-03-25T22:32:12.162Z,17.10
2019-03-25T22:35:14.483Z,17.10
2019-03-25T22:38:16.740Z,17.00
2019-03-25T22:41:19.008Z,16.90
2019-03-25T22:44:21.251Z,16.90
2019-03-25T22:47:23.552Z,16.90
2019-03-25T22:50:33.296Z,16.80
2019-03-25T22:53:35.577Z,16.80
2019-03-25T22:56:37.902Z,16.70
2019-03-25T22:59:40.174Z,16.70
2019-03-25T23:02:42.479Z,16.70
2019-03-25T23:05:44.762Z,16.60
2019-03-25T23:08:47.092Z,16.60
2019-03-25T23:11:49.343Z,16.50
2019-03-25T23:14:51.584Z,16.50
2019-03-25T23:17:53.878Z,16.50
2019-03-25T23:20:56.113Z,16.40
2019-03-25T23:23:58.365Z,16.40
2019-03-25T23:27:00.723Z,16.40
2019-03-25T23:30:03.088Z,16.30
2019-03-25T23:33:06.531Z,16.30
2019-03-25T23:36:08.907Z,16.20
2019-03-25T23:39:11.338Z,16.20
2019-03-25T23:42:13.689Z,16.20
2019-03-25T23:45:15.973Z,16.10
2019-03-25T23:48:18.267Z,16.10
2019-03-25T23:51:20.649Z,16.10
2019-03-25T23:54:22.913Z,16.00
2019-03-25T23:57:25.200Z,15.90
